sensor_id;sensor_type;location;lat;lon;timestamp;P1;durP1;ratioP1;P2;durP2;ratioP2
14518;SDS011;7346;50.846;4.388;2022-08-03T00:01:08;6.82;;;1.75;;
14518;SDS011;7346;50.846;4.388;2022-08-03T00:03:35;3.85;;;1.30;;
14518;SDS011;7346;50.846;4.388;2022-08-03T00:06:02;8.02;;;1.60;;
14518;SDS011;7346;50.846;4.388;2022-08-03T00:08:29;6.60;;;1.33;;
14518;SDS011;7346;50.846;4.388;2022-08-03T00:10:56;3.15;;;1.50;;
14518;SDS011;7346;50.846;4.388;2022-08-03T00:13:23;7.55;;;1.80;;
14518;SDS011;7346;50.846;4.388;2022-08-03T00:15:50;8.00;;;1.60;;
14518;SDS011;7346;50.846;4.388;2022-08-03T00:18:18;4.88;;;1.40;;
14518;SDS011;7346;50.846;4.388;2022-08-03T00:20:45;5.53;;;1.63;;
14518;SDS011;7346;50.846;4.388;2022-08-03T00:23:12;9.40;;;1.77;;
14518;SDS011;7346;50.846;4.388;2022-08-03T00:25:39;7.47;;;1.70;;
14518;SDS011;7346;50.846;4.388;2022-08-03T00:28:06;3.80;;;1.20;;
14518;SDS011;7346;50.846;4.388;2022-08-03T00:30:33;6.20;;;1.45;;
14518;SDS011;7346;50.846;4.388;2022-08-03T00:33:01;9.77;;;1.75;;
14518;SDS011;7346;50.846;4.388;2022-08-03T00:35:29;6.30;;;1.23;;
14518;SDS011;7346;50.846;4.388;2022-08-03T00:37:57;7.43;;;1.70;;
14518;SDS011;7346;50.846;4.388;2022-08-03T00:40:24;7.50;;;1.90;;
14518;SDS011;7346;50.846;4.388;2022-08-03T00:42:54;5.90;;;1.70;;
14518;SDS011;7346;50.846;4.388;2022-08-03T00:45:23;4.07;;;1.33;;
14518;SDS011;7346;50.846;4.388;2022-08-03T00:47:52;7.75;;;1.75;;
14518;SDS011;7346;50.846;4.388;2022-08-03T00:50:21;6.55;;;1.92;;
14518;SDS011;7346;50.846;4.388;2022-08-03T00:52:51;5.53;;;1.65;;
14518;SDS011;7346;50.846;4.388;2022-08-03T00:55:20;6.03;;;1.60;;
14518;SDS011;7346;50.846;4.388;2022-08-03T00:57:47;8.48;;;1.70;;
14518;SDS011;7346;50.846;4.388;2022-08-03T01:00:15;5.85;;;1.70;;
14518;SDS011;7346;50.846;4.388;2022-08-03T01:02:44;6.68;;;1.48;;
14518;SDS011;7346;50.846;4.388;2022-08-03T01:05:14;6.28;;;1.67;;
14518;SDS011;7346;50.846;4.388;2022-08-03T01:07:43;8.02;;;2.00;;
14518;SDS011;7346;50.846;4.388;2022-08-03T01:10:23;7.47;;;1.65;;
14518;SDS011;7346;50.846;4.388;2022-08-03T01:12:55;8.45;;;1.73;;
14518;SDS011;7346;50.846;4.388;2022-08-03T01:15:27;6.22;;;2.05;;
14518;SDS011;7346;50.846;4.388;2022-08-03T01:18:02;6.60;;;2.03;;
14518;SDS011;7346;50.846;4.388;2022-08-03T01:20:33;12.30;;;1.92;;
14518;SDS011;7346;50.846;4.388;2022-08-03T01:23:08;8.85;;;1.90;;
14518;SDS011;7346;50.846;4.388;2022-08-03T01:26:02;8.15;;;1.88;;
14518;SDS011;7346;50.846;4.388;2022-08-03T01:28:47;8.75;;;1.85;;
14518;SDS011;7346;50.846;4.388;2022-08-03T01:31:36;9.57;;;1.73;;
14518;SDS011;7346;50.846;4.388;2022-08-03T01:34:07;8.77;;;1.95;;
14518;SDS011;7346;50.846;4.388;2022-08-03T01:36:40;13.05;;;2.55;;
14518;SDS011;7346;50.846;4.388;2022-08-03T01:39:13;13.73;;;2.17;;
14518;SDS011;7346;50.846;4.388;2022-08-03T01:41:43;8.52;;;1.83;;
14518;SDS011;7346;50.846;4.388;2022-08-03T01:44:14;7.60;;;1.50;;
14518;SDS011;7346;50.846;4.388;2022-08-03T01:46:43;7.22;;;1.85;;
14518;SDS011;7346;50.846;4.388;2022-08-03T01:49:13;9.85;;;2.03;;
14518;SDS011;7346;50.846;4.388;2022-08-03T01:51:41;7.18;;;1.83;;
14518;SDS011;7346;50.846;4.388;2022-08-03T01:54:11;6.70;;;1.88;;
14518;SDS011;7346;50.846;4.388;2022-08-03T01:56:39;7.75;;;1.90;;
14518;SDS011;7346;50.846;4.388;2022-08-03T01:59:10;6.63;;;2.15;;
14518;SDS011;7346;50.846;4.388;2022-08-03T02:01:40;11.00;;;1.85;;
14518;SDS011;7346;50.846;4.388;2022-08-03T02:04:12;9.98;;;1.85;;
14518;SDS011;7346;50.846;4.388;2022-08-03T02:06:42;5.93;;;1.63;;
14518;SDS011;7346;50.846;4.388;2022-08-03T02:09:11;12.13;;;2.38;;
14518;SDS011;7346;50.846;4.388;2022-08-03T02:11:40;9.75;;;2.80;;
14518;SDS011;7346;50.846;4.388;2022-08-03T02:14:08;11.75;;;3.03;;
14518;SDS011;7346;50.846;4.388;2022-08-03T02:16:36;8.60;;;2.22;;
14518;SDS011;7346;50.846;4.388;2022-08-03T02:19:05;10.13;;;2.17;;
14518;SDS011;7346;50.846;4.388;2022-08-03T02:21:35;10.93;;;2.17;;
14518;SDS011;7346;50.846;4.388;2022-08-03T02:24:04;11.18;;;2.20;;
14518;SDS011;7346;50.846;4.388;2022-08-03T02:26:32;11.00;;;2.20;;
14518;SDS011;7346;50.846;4.388;2022-08-03T02:29:03;7.00;;;1.75;;
14518;SDS011;7346;50.846;4.388;2022-08-03T02:31:34;8.15;;;2.28;;
14518;SDS011;7346;50.846;4.388;2022-08-03T02:34:03;8.32;;;2.20;;
14518;SDS011;7346;50.846;4.388;2022-08-03T02:36:38;8.35;;;1.98;;
14518;SDS011;7346;50.846;4.388;2022-08-03T02:39:08;8.25;;;2.35;;
14518;SDS011;7346;50.846;4.388;2022-08-03T02:41:37;8.65;;;2.03;;
14518;SDS011;7346;50.846;4.388;2022-08-03T02:44:08;8.43;;;2.00;;
14518;SDS011;7346;50.846;4.388;2022-08-03T02:46:37;6.50;;;1.52;;
14518;SDS011;7346;50.846;4.388;2022-08-03T02:49:06;7.35;;;1.70;;
14518;SDS011;7346;50.846;4.388;2022-08-03T02:51:36;8.40;;;1.95;;
14518;SDS011;7346;50.846;4.388;2022-08-03T02:54:05;8.15;;;1.75;;
14518;SDS011;7346;50.846;4.388;2022-08-03T02:56:34;4.85;;;1.50;;
14518;SDS011;7346;50.846;4.388;2022-08-03T02:59:02;5.88;;;1.70;;
14518;SDS011;7346;50.846;4.388;2022-08-03T03:01:31;7.18;;;1.63;;
14518;SDS011;7346;50.846;4.388;2022-08-03T03:03:58;6.55;;;1.58;;
14518;SDS011;7346;50.846;4.388;2022-08-03T03:06:27;9.23;;;2.13;;
14518;SDS011;7346;50.846;4.388;2022-08-03T03:08:55;4.93;;;1.70;;
14518;SDS011;7346;50.846;4.388;2022-08-03T03:11:24;5.20;;;1.38;;
14518;SDS011;7346;50.846;4.388;2022-08-03T03:13:52;8.63;;;1.88;;
14518;SDS011;7346;50.846;4.388;2022-08-03T03:16:22;5.97;;;1.52;;
14518;SDS011;7346;50.846;4.388;2022-08-03T03:18:50;7.15;;;2.05;;
14518;SDS011;7346;50.846;4.388;2022-08-03T03:21:19;7.13;;;2.05;;
14518;SDS011;7346;50.846;4.388;2022-08-03T03:23:48;4.95;;;1.70;;
14518;SDS011;7346;50.846;4.388;2022-08-03T03:26:17;9.50;;;1.60;;
14518;SDS011;7346;50.846;4.388;2022-08-03T03:28:44;5.22;;;1.40;;
14518;SDS011;7346;50.846;4.388;2022-08-03T03:31:11;8.07;;;1.80;;
14518;SDS011;7346;50.846;4.388;2022-08-03T03:33:38;5.32;;;1.60;;
14518;SDS011;7346;50.846;4.388;2022-08-03T03:36:05;4.65;;;1.63;;
14518;SDS011;7346;50.846;4.388;2022-08-03T03:38:33;9.05;;;2.10;;
14518;SDS011;7346;50.846;4.388;2022-08-03T03:41:01;6.18;;;1.60;;
14518;SDS011;7346;50.846;4.388;2022-08-03T03:43:29;4.78;;;1.48;;
14518;SDS011;7346;50.846;4.388;2022-08-03T03:45:57;6.30;;;1.52;;
14518;SDS011;7346;50.846;4.388;2022-08-03T03:48:24;6.70;;;1.65;;
14518;SDS011;7346;50.846;4.388;2022-08-03T03:50:51;7.00;;;1.60;;
14518;SDS011;7346;50.846;4.388;2022-08-03T03:53:19;4.65;;;1.40;;
14518;SDS011;7346;50.846;4.388;2022-08-03T03:55:46;6.38;;;1.73;;
14518;SDS011;7346;50.846;4.388;2022-08-03T03:58:14;4.80;;;1.88;;
14518;SDS011;7346;50.846;4.388;2022-08-03T04:00:41;5.90;;;1.85;;
14518;SDS011;7346;50.846;4.388;2022-08-03T04:03:09;9.95;;;1.90;;
14518;SDS011;7346;50.846;4.388;2022-08-03T04:05:36;5.65;;;1.67;;
14518;SDS011;7346;50.846;4.388;2022-08-03T04:08:21;6.75;;;1.60;;
14518;SDS011;7346;50.846;4.388;2022-08-03T04:11:07;5.85;;;1.70;;
14518;SDS011;7346;50.846;4.388;2022-08-03T04:13:41;9.43;;;1.85;;
14518;SDS011;7346;50.846;4.388;2022-08-03T04:16:13;11.75;;;1.90;;
14518;SDS011;7346;50.846;4.388;2022-08-03T04:18:45;14.63;;;2.42;;
14518;SDS011;7346;50.846;4.388;2022-08-03T04:21:16;6.97;;;2.00;;
14518;SDS011;7346;50.846;4.388;2022-08-03T04:23:46;8.20;;;2.20;;
14518;SDS011;7346;50.846;4.388;2022-08-03T04:26:17;8.07;;;1.75;;
14518;SDS011;7346;50.846;4.388;2022-08-03T04:28:49;6.65;;;1.65;;
14518;SDS011;7346;50.846;4.388;2022-08-03T04:31:17;7.85;;;1.80;;
14518;SDS011;7346;50.846;4.388;2022-08-03T04:33:47;9.60;;;1.90;;
14518;SDS011;7346;50.846;4.388;2022-08-03T04:36:16;5.25;;;2.03;;
14518;SDS011;7346;50.846;4.388;2022-08-03T04:38:52;7.88;;;1.77;;
14518;SDS011;7346;50.846;4.388;2022-08-03T04:41:24;9.32;;;1.90;;
14518;SDS011;7346;50.846;4.388;2022-08-03T04:43:55;7.55;;;1.75;;
14518;SDS011;7346;50.846;4.388;2022-08-03T04:46:25;6.18;;;2.13;;
14518;SDS011;7346;50.846;4.388;2022-08-03T04:48:53;8.30;;;1.92;;
14518;SDS011;7346;50.846;4.388;2022-08-03T04:51:21;7.35;;;1.95;;
14518;SDS011;7346;50.846;4.388;2022-08-03T04:53:49;9.30;;;1.80;;
14518;SDS011;7346;50.846;4.388;2022-08-03T04:56:16;8.07;;;2.08;;
14518;SDS011;7346;50.846;4.388;2022-08-03T04:58:42;10.23;;;2.10;;
14518;SDS011;7346;50.846;4.388;2022-08-03T05:01:11;7.15;;;1.80;;
14518;SDS011;7346;50.846;4.388;2022-08-03T05:03:38;8.32;;;1.80;;
14518;SDS011;7346;50.846;4.388;2022-08-03T05:06:04;5.43;;;1.55;;
14518;SDS011;7346;50.846;4.388;2022-08-03T05:08:32;11.15;;;1.85;;
14518;SDS011;7346;50.846;4.388;2022-08-03T05:10:59;9.75;;;2.05;;
14518;SDS011;7346;50.846;4.388;2022-08-03T05:13:26;7.60;;;1.90;;
14518;SDS011;7346;50.846;4.388;2022-08-03T05:15:53;12.73;;;2.10;;
14518;SDS011;7346;50.846;4.388;2022-08-03T05:18:21;9.23;;;2.55;;
14518;SDS011;7346;50.846;4.388;2022-08-03T05:20:48;9.75;;;1.90;;
14518;SDS011;7346;50.846;4.388;2022-08-03T05:23:15;7.15;;;2.22;;
14518;SDS011;7346;50.846;4.388;2022-08-03T05:25:42;5.90;;;1.70;;
14518;SDS011;7346;50.846;4.388;2022-08-03T05:28:09;5.00;;;1.40;;
14518;SDS011;7346;50.846;4.388;2022-08-03T05:30:36;7.90;;;2.10;;
14518;SDS011;7346;50.846;4.388;2022-08-03T05:33:03;8.38;;;1.88;;
14518;SDS011;7346;50.846;4.388;2022-08-03T05:35:31;5.25;;;1.70;;
14518;SDS011;7346;50.846;4.388;2022-08-03T05:38:00;10.15;;;1.40;;
14518;SDS011;7346;50.846;4.388;2022-08-03T05:40:27;5.22;;;1.50;;
14518;SDS011;7346;50.846;4.388;2022-08-03T05:42:54;4.85;;;1.50;;
14518;SDS011;7346;50.846;4.388;2022-08-03T05:45:21;6.68;;;1.60;;
14518;SDS011;7346;50.846;4.388;2022-08-03T05:47:48;6.07;;;1.50;;
14518;SDS011;7346;50.846;4.388;2022-08-03T05:50:16;7.50;;;2.00;;
14518;SDS011;7346;50.846;4.388;2022-08-03T05:52:46;10.05;;;2.00;;
14518;SDS011;7346;50.846;4.388;2022-08-03T05:55:13;8.25;;;1.98;;
14518;SDS011;7346;50.846;4.388;2022-08-03T05:57:41;7.05;;;1.80;;
14518;SDS011;7346;50.846;4.388;2022-08-03T06:00:09;5.22;;;1.55;;
14518;SDS011;7346;50.846;4.388;2022-08-03T06:02:36;7.18;;;1.58;;
14518;SDS011;7346;50.846;4.388;2022-08-03T06:05:04;5.43;;;1.60;;
14518;SDS011;7346;50.846;4.388;2022-08-03T06:07:32;7.25;;;2.03;;
14518;SDS011;7346;50.846;4.388;2022-08-03T06:10:01;6.43;;;1.73;;
14518;SDS011;7346;50.846;4.388;2022-08-03T06:12:29;9.27;;;1.88;;
14518;SDS011;7346;50.846;4.388;2022-08-03T06:14:56;5.43;;;1.58;;
14518;SDS011;7346;50.846;4.388;2022-08-03T06:17:23;11.13;;;2.25;;
14518;SDS011;7346;50.846;4.388;2022-08-03T06:19:50;4.85;;;1.60;;
14518;SDS011;7346;50.846;4.388;2022-08-03T06:22:18;5.53;;;1.30;;
14518;SDS011;7346;50.846;4.388;2022-08-03T06:24:45;8.43;;;1.70;;
14518;SDS011;7346;50.846;4.388;2022-08-03T06:27:13;7.57;;;1.83;;
14518;SDS011;7346;50.846;4.388;2022-08-03T06:29:40;9.18;;;2.10;;
14518;SDS011;7346;50.846;4.388;2022-08-03T06:32:08;6.05;;;1.63;;
14518;SDS011;7346;50.846;4.388;2022-08-03T06:34:35;4.65;;;1.48;;
14518;SDS011;7346;50.846;4.388;2022-08-03T06:37:02;6.78;;;1.58;;
14518;SDS011;7346;50.846;4.388;2022-08-03T06:39:29;9.23;;;1.67;;
14518;SDS011;7346;50.846;4.388;2022-08-03T06:41:56;6.40;;;1.58;;
14518;SDS011;7346;50.846;4.388;2022-08-03T06:44:25;6.63;;;1.77;;
14518;SDS011;7346;50.846;4.388;2022-08-03T06:46:51;5.60;;;1.73;;
14518;SDS011;7346;50.846;4.388;2022-08-03T06:49:18;4.72;;;1.85;;
14518;SDS011;7346;50.846;4.388;2022-08-03T06:51:45;12.63;;;2.00;;
14518;SDS011;7346;50.846;4.388;2022-08-03T06:54:14;8.00;;;2.03;;
14518;SDS011;7346;50.846;4.388;2022-08-03T06:56:41;11.27;;;2.35;;
14518;SDS011;7346;50.846;4.388;2022-08-03T06:59:08;6.60;;;1.65;;
14518;SDS011;7346;50.846;4.388;2022-08-03T07:01:36;8.90;;;2.25;;
14518;SDS011;7346;50.846;4.388;2022-08-03T07:04:03;7.18;;;2.00;;
14518;SDS011;7346;50.846;4.388;2022-08-03T07:06:31;8.88;;;2.53;;
14518;SDS011;7346;50.846;4.388;2022-08-03T07:08:58;12.75;;;3.33;;
14518;SDS011;7346;50.846;4.388;2022-08-03T07:11:25;11.75;;;5.82;;
14518;SDS011;7346;50.846;4.388;2022-08-03T07:13:53;9.13;;;2.20;;
14518;SDS011;7346;50.846;4.388;2022-08-03T07:16:20;14.35;;;2.20;;
14518;SDS011;7346;50.846;4.388;2022-08-03T07:18:49;12.20;;;2.50;;
14518;SDS011;7346;50.846;4.388;2022-08-03T07:21:16;11.02;;;2.20;;
14518;SDS011;7346;50.846;4.388;2022-08-03T07:23:42;8.13;;;2.00;;
14518;SDS011;7346;50.846;4.388;2022-08-03T07:26:09;14.10;;;2.17;;
14518;SDS011;7346;50.846;4.388;2022-08-03T07:28:37;8.18;;;1.85;;
14518;SDS011;7346;50.846;4.388;2022-08-03T07:31:04;7.22;;;2.15;;
14518;SDS011;7346;50.846;4.388;2022-08-03T07:33:31;9.55;;;1.52;;
14518;SDS011;7346;50.846;4.388;2022-08-03T07:35:59;7.80;;;1.67;;
14518;SDS011;7346;50.846;4.388;2022-08-03T07:38:26;11.02;;;1.92;;
14518;SDS011;7346;50.846;4.388;2022-08-03T07:40:54;8.32;;;1.70;;
14518;SDS011;7346;50.846;4.388;2022-08-03T07:43:20;9.45;;;1.88;;
14518;SDS011;7346;50.846;4.388;2022-08-03T07:45:48;8.32;;;1.90;;
14518;SDS011;7346;50.846;4.388;2022-08-03T07:48:15;5.35;;;1.85;;
14518;SDS011;7346;50.846;4.388;2022-08-03T07:50:42;3.95;;;1.30;;
14518;SDS011;7346;50.846;4.388;2022-08-03T07:53:10;7.38;;;1.80;;
14518;SDS011;7346;50.846;4.388;2022-08-03T07:55:37;9.80;;;1.77;;
14518;SDS011;7346;50.846;4.388;2022-08-03T07:58:05;9.32;;;1.85;;
14518;SDS011;7346;50.846;4.388;2022-08-03T08:00:34;10.82;;;1.95;;
14518;SDS011;7346;50.846;4.388;2022-08-03T08:03:01;9.13;;;1.95;;
14518;SDS011;7346;50.846;4.388;2022-08-03T08:05:28;8.32;;;1.80;;
14518;SDS011;7346;50.846;4.388;2022-08-03T08:07:56;8.45;;;1.77;;
14518;SDS011;7346;50.846;4.388;2022-08-03T08:10:24;9.90;;;1.80;;
14518;SDS011;7346;50.846;4.388;2022-08-03T08:12:51;11.55;;;2.50;;
14518;SDS011;7346;50.846;4.388;2022-08-03T08:15:18;5.85;;;1.60;;
14518;SDS011;7346;50.846;4.388;2022-08-03T08:17:45;10.05;;;1.95;;
14518;SDS011;7346;50.846;4.388;2022-08-03T08:20:15;12.45;;;2.55;;
14518;SDS011;7346;50.846;4.388;2022-08-03T08:22:43;13.98;;;2.38;;
14518;SDS011;7346;50.846;4.388;2022-08-03T08:25:10;9.02;;;1.85;;
14518;SDS011;7346;50.846;4.388;2022-08-03T08:27:43;11.90;;;2.20;;
14518;SDS011;7346;50.846;4.388;2022-08-03T08:30:11;10.60;;;2.15;;
14518;SDS011;7346;50.846;4.388;2022-08-03T08:32:39;12.68;;;2.22;;
14518;SDS011;7346;50.846;4.388;2022-08-03T08:35:07;10.15;;;1.80;;
14518;SDS011;7346;50.846;4.388;2022-08-03T08:37:35;12.65;;;2.20;;
14518;SDS011;7346;50.846;4.388;2022-08-03T08:40:03;12.57;;;2.05;;
14518;SDS011;7346;50.846;4.388;2022-08-03T08:42:31;11.77;;;2.35;;
14518;SDS011;7346;50.846;4.388;2022-08-03T08:45:00;13.38;;;2.50;;
14518;SDS011;7346;50.846;4.388;2022-08-03T08:47:29;14.00;;;1.98;;
14518;SDS011;7346;50.846;4.388;2022-08-03T08:49:57;7.45;;;1.77;;
14518;SDS011;7346;50.846;4.388;2022-08-03T08:52:25;10.23;;;1.92;;
14518;SDS011;7346;50.846;4.388;2022-08-03T08:54:53;11.60;;;1.83;;
14518;SDS011;7346;50.846;4.388;2022-08-03T08:57:22;10.10;;;2.30;;
14518;SDS011;7346;50.846;4.388;2022-08-03T08:59:51;11.07;;;1.90;;
14518;SDS011;7346;50.846;4.388;2022-08-03T09:02:22;15.32;;;2.33;;
14518;SDS011;7346;50.846;4.388;2022-08-03T09:04:49;14.10;;;2.00;;
14518;SDS011;7346;50.846;4.388;2022-08-03T09:07:17;7.75;;;1.80;;
14518;SDS011;7346;50.846;4.388;2022-08-03T09:09:44;15.00;;;2.20;;
14518;SDS011;7346;50.846;4.388;2022-08-03T09:12:11;13.25;;;2.20;;
14518;SDS011;7346;50.846;4.388;2022-08-03T09:14:37;9.45;;;2.13;;
14518;SDS011;7346;50.846;4.388;2022-08-03T09:17:04;9.55;;;1.70;;
14518;SDS011;7346;50.846;4.388;2022-08-03T09:19:33;8.32;;;1.83;;
14518;SDS011;7346;50.846;4.388;2022-08-03T09:22:08;7.30;;;1.95;;
14518;SDS011;7346;50.846;4.388;2022-08-03T09:24:36;7.63;;;1.85;;
14518;SDS011;7346;50.846;4.388;2022-08-03T09:27:04;7.07;;;1.70;;
14518;SDS011;7346;50.846;4.388;2022-08-03T09:29:37;8.52;;;1.58;;
14518;SDS011;7346;50.846;4.388;2022-08-03T09:32:04;10.52;;;2.60;;
14518;SDS011;7346;50.846;4.388;2022-08-03T09:34:31;7.10;;;1.45;;
14518;SDS011;7346;50.846;4.388;2022-08-03T09:37:00;14.40;;;1.73;;
14518;SDS011;7346;50.846;4.388;2022-08-03T09:39:27;9.98;;;1.60;;
14518;SDS011;7346;50.846;4.388;2022-08-03T09:42:04;5.03;;;1.67;;
14518;SDS011;7346;50.846;4.388;2022-08-03T09:44:33;7.70;;;1.42;;
14518;SDS011;7346;50.846;4.388;2022-08-03T09:47:00;4.28;;;1.58;;
14518;SDS011;7346;50.846;4.388;2022-08-03T09:49:28;6.30;;;1.33;;
14518;SDS011;7346;50.846;4.388;2022-08-03T09:51:56;6.57;;;1.52;;
14518;SDS011;7346;50.846;4.388;2022-08-03T09:54:28;7.40;;;1.10;;
14518;SDS011;7346;50.846;4.388;2022-08-03T09:56:55;7.05;;;1.50;;
14518;SDS011;7346;50.846;4.388;2022-08-03T09:59:24;10.07;;;1.55;;
14518;SDS011;7346;50.846;4.388;2022-08-03T10:01:52;10.63;;;1.90;;
14518;SDS011;7346;50.846;4.388;2022-08-03T10:04:20;10.25;;;1.45;;
14518;SDS011;7346;50.846;4.388;2022-08-03T10:09:32;8.23;;;1.33;;
14518;SDS011;7346;50.846;4.388;2022-08-03T10:12:08;8.40;;;1.40;;
14518;SDS011;7346;50.846;4.388;2022-08-03T10:14:37;11.10;;;1.25;;
14518;SDS011;7346;50.846;4.388;2022-08-03T10:17:05;8.18;;;1.30;;
14518;SDS011;7346;50.846;4.388;2022-08-03T10:19:33;8.48;;;1.25;;
14518;SDS011;7346;50.846;4.388;2022-08-03T10:22:02;6.00;;;1.45;;
14518;SDS011;7346;50.846;4.388;2022-08-03T10:24:33;6.50;;;1.40;;
14518;SDS011;7346;50.846;4.388;2022-08-03T10:27:03;7.82;;;1.30;;
14518;SDS011;7346;50.846;4.388;2022-08-03T10:29:34;3.28;;;1.10;;
14518;SDS011;7346;50.846;4.388;2022-08-03T10:32:06;8.43;;;1.30;;
14518;SDS011;7346;50.846;4.388;2022-08-03T10:34:39;9.32;;;1.50;;
14518;SDS011;7346;50.846;4.388;2022-08-03T10:37:09;3.80;;;1.20;;
14518;SDS011;7346;50.846;4.388;2022-08-03T10:39:38;6.05;;;1.30;;
14518;SDS011;7346;50.846;4.388;2022-08-03T10:42:17;4.28;;;1.05;;
14518;SDS011;7346;50.846;4.388;2022-08-03T10:44:49;3.92;;;1.35;;
14518;SDS011;7346;50.846;4.388;2022-08-03T10:47:26;3.22;;;0.90;;
14518;SDS011;7346;50.846;4.388;2022-08-03T10:49:53;4.47;;;1.25;;
14518;SDS011;7346;50.846;4.388;2022-08-03T10:52:21;4.80;;;1.05;;
14518;SDS011;7346;50.846;4.388;2022-08-03T10:54:49;4.90;;;1.40;;
14518;SDS011;7346;50.846;4.388;2022-08-03T10:57:47;6.80;;;1.20;;
14518;SDS011;7346;50.846;4.388;2022-08-03T11:00:17;8.65;;;1.27;;
14518;SDS011;7346;50.846;4.388;2022-08-03T11:03:01;5.90;;;1.35;;
14518;SDS011;7346;50.846;4.388;2022-08-03T11:05:33;8.07;;;1.25;;
14518;SDS011;7346;50.846;4.388;2022-08-03T11:08:22;3.40;;;1.10;;
14518;SDS011;7346;50.846;4.388;2022-08-03T11:10:59;5.07;;;0.90;;
14518;SDS011;7346;50.846;4.388;2022-08-03T11:13:27;3.33;;;1.08;;
14518;SDS011;7346;50.846;4.388;2022-08-03T11:15:59;10.88;;;1.45;;
14518;SDS011;7346;50.846;4.388;2022-08-03T11:18:27;6.05;;;1.35;;
14518;SDS011;7346;50.846;4.388;2022-08-03T11:20:57;2.63;;;1.25;;
14518;SDS011;7346;50.846;4.388;2022-08-03T11:23:41;6.65;;;1.10;;
14518;SDS011;7346;50.846;4.388;2022-08-03T11:26:17;6.50;;;1.27;;
14518;SDS011;7346;50.846;4.388;2022-08-03T11:28:46;5.53;;;1.20;;
14518;SDS011;7346;50.846;4.388;2022-08-03T11:34:10;9.57;;;1.38;;
14518;SDS011;7346;50.846;4.388;2022-08-03T11:39:44;6.05;;;0.90;;
14518;SDS011;7346;50.846;4.388;2022-08-03T11:45:12;3.10;;;0.80;;
14518;SDS011;7346;50.846;4.388;2022-08-03T11:47:40;4.85;;;0.80;;
14518;SDS011;7346;50.846;4.388;2022-08-03T11:50:08;4.20;;;0.98;;
14518;SDS011;7346;50.846;4.388;2022-08-03T11:52:37;7.55;;;0.95;;
14518;SDS011;7346;50.846;4.388;2022-08-03T11:55:09;4.15;;;1.30;;
14518;SDS011;7346;50.846;4.388;2022-08-03T11:57:44;4.38;;;1.00;;
14518;SDS011;7346;50.846;4.388;2022-08-03T12:00:27;3.95;;;1.27;;
14518;SDS011;7346;50.846;4.388;2022-08-03T12:03:00;5.13;;;1.10;;
14518;SDS011;7346;50.846;4.388;2022-08-03T12:05:35;3.38;;;0.90;;
14518;SDS011;7346;50.846;4.388;2022-08-03T12:08:07;2.83;;;1.00;;
14518;SDS011;7346;50.846;4.388;2022-08-03T12:10:35;3.67;;;1.20;;
14518;SDS011;7346;50.846;4.388;2022-08-03T12:13:04;1.63;;;0.70;;
14518;SDS011;7346;50.846;4.388;2022-08-03T12:15:33;4.68;;;1.05;;
14518;SDS011;7346;50.846;4.388;2022-08-03T12:18:00;4.88;;;1.13;;
14518;SDS011;7346;50.846;4.388;2022-08-03T12:20:29;6.70;;;1.55;;
14518;SDS011;7346;50.846;4.388;2022-08-03T12:23:06;5.95;;;0.95;;
14518;SDS011;7346;50.846;4.388;2022-08-03T12:25:35;2.92;;;0.95;;
14518;SDS011;7346;50.846;4.388;2022-08-03T12:28:08;9.82;;;1.27;;
14518;SDS011;7346;50.846;4.388;2022-08-03T12:30:40;2.58;;;1.08;;
14518;SDS011;7346;50.846;4.388;2022-08-03T12:33:12;6.80;;;0.85;;
14518;SDS011;7346;50.846;4.388;2022-08-03T12:35:44;2.60;;;0.70;;
14518;SDS011;7346;50.846;4.388;2022-08-03T12:38:11;4.80;;;0.93;;
14518;SDS011;7346;50.846;4.388;2022-08-03T12:40:38;8.20;;;1.00;;
14518;SDS011;7346;50.846;4.388;2022-08-03T12:43:11;5.43;;;0.85;;
14518;SDS011;7346;50.846;4.388;2022-08-03T12:45:39;5.03;;;1.00;;
14518;SDS011;7346;50.846;4.388;2022-08-03T12:48:07;2.83;;;0.88;;
14518;SDS011;7346;50.846;4.388;2022-08-03T12:50:36;2.08;;;0.82;;
14518;SDS011;7346;50.846;4.388;2022-08-03T12:53:04;6.57;;;1.05;;
14518;SDS011;7346;50.846;4.388;2022-08-03T12:55:33;5.90;;;1.27;;
14518;SDS011;7346;50.846;4.388;2022-08-03T12:58:01;2.33;;;1.00;;
14518;SDS011;7346;50.846;4.388;2022-08-03T13:00:31;4.97;;;0.80;;
14518;SDS011;7346;50.846;4.388;2022-08-03T13:03:01;5.35;;;1.10;;
14518;SDS011;7346;50.846;4.388;2022-08-03T13:05:30;4.15;;;1.02;;
14518;SDS011;7346;50.846;4.388;2022-08-03T13:07:57;6.80;;;1.20;;
14518;SDS011;7346;50.846;4.388;2022-08-03T13:10:28;4.07;;;1.10;;
14518;SDS011;7346;50.846;4.388;2022-08-03T13:12:56;4.18;;;0.80;;
14518;SDS011;7346;50.846;4.388;2022-08-03T13:15:24;2.78;;;0.95;;
14518;SDS011;7346;50.846;4.388;2022-08-03T13:17:55;8.27;;;1.00;;
14518;SDS011;7346;50.846;4.388;2022-08-03T13:20:22;6.75;;;1.13;;
14518;SDS011;7346;50.846;4.388;2022-08-03T13:22:49;2.10;;;0.80;;
14518;SDS011;7346;50.846;4.388;2022-08-03T13:25:16;2.13;;;0.80;;
14518;SDS011;7346;50.846;4.388;2022-08-03T13:27:44;3.42;;;0.98;;
14518;SDS011;7346;50.846;4.388;2022-08-03T13:30:11;3.63;;;1.00;;
14518;SDS011;7346;50.846;4.388;2022-08-03T13:32:39;5.53;;;1.10;;
14518;SDS011;7346;50.846;4.388;2022-08-03T13:35:08;3.42;;;1.70;;
14518;SDS011;7346;50.846;4.388;2022-08-03T13:37:36;4.03;;;1.08;;
14518;SDS011;7346;50.846;4.388;2022-08-03T13:40:04;5.40;;;0.98;;
14518;SDS011;7346;50.846;4.388;2022-08-03T13:42:32;8.55;;;1.50;;
14518;SDS011;7346;50.846;4.388;2022-08-03T13:45:01;5.75;;;1.00;;
14518;SDS011;7346;50.846;4.388;2022-08-03T13:47:28;4.97;;;1.13;;
14518;SDS011;7346;50.846;4.388;2022-08-03T13:49:55;5.22;;;1.00;;
14518;SDS011;7346;50.846;4.388;2022-08-03T13:52:24;3.13;;;1.15;;
14518;SDS011;7346;50.846;4.388;2022-08-03T13:54:51;3.97;;;1.10;;
14518;SDS011;7346;50.846;4.388;2022-08-03T13:57:18;6.93;;;1.10;;
14518;SDS011;7346;50.846;4.388;2022-08-03T13:59:45;3.53;;;0.75;;
14518;SDS011;7346;50.846;4.388;2022-08-03T14:02:13;8.02;;;0.90;;
14518;SDS011;7346;50.846;4.388;2022-08-03T14:04:40;3.60;;;0.77;;
14518;SDS011;7346;50.846;4.388;2022-08-03T14:07:07;3.42;;;0.82;;
14518;SDS011;7346;50.846;4.388;2022-08-03T14:09:35;7.75;;;0.90;;
14518;SDS011;7346;50.846;4.388;2022-08-03T14:12:05;3.40;;;0.80;;
14518;SDS011;7346;50.846;4.388;2022-08-03T14:14:32;3.72;;;0.90;;
14518;SDS011;7346;50.846;4.388;2022-08-03T14:16:59;5.72;;;1.08;;
14518;SDS011;7346;50.846;4.388;2022-08-03T14:19:25;3.90;;;1.00;;
14518;SDS011;7346;50.846;4.388;2022-08-03T14:21:53;4.53;;;0.90;;
14518;SDS011;7346;50.846;4.388;2022-08-03T14:24:22;5.13;;;1.38;;
14518;SDS011;7346;50.846;4.388;2022-08-03T14:26:50;3.72;;;0.90;;
14518;SDS011;7346;50.846;4.388;2022-08-03T14:29:17;4.45;;;1.05;;
14518;SDS011;7346;50.846;4.388;2022-08-03T14:31:44;3.42;;;1.00;;
14518;SDS011;7346;50.846;4.388;2022-08-03T14:34:11;4.65;;;1.00;;
14518;SDS011;7346;50.846;4.388;2022-08-03T14:36:38;5.72;;;1.08;;
14518;SDS011;7346;50.846;4.388;2022-08-03T14:39:06;5.78;;;1.13;;
14518;SDS011;7346;50.846;4.388;2022-08-03T14:41:33;8.40;;;1.00;;
14518;SDS011;7346;50.846;4.388;2022-08-03T14:44:01;9.80;;;1.23;;
14518;SDS011;7346;50.846;4.388;2022-08-03T14:46:28;3.75;;;0.98;;
14518;SDS011;7346;50.846;4.388;2022-08-03T14:48:56;2.75;;;0.90;;
14518;SDS011;7346;50.846;4.388;2022-08-03T14:51:23;4.63;;;1.02;;
14518;SDS011;7346;50.846;4.388;2022-08-03T14:53:50;5.60;;;0.82;;
14518;SDS011;7346;50.846;4.388;2022-08-03T14:56:17;5.55;;;1.20;;
14518;SDS011;7346;50.846;4.388;2022-08-03T14:58:44;4.40;;;1.00;;
14518;SDS011;7346;50.846;4.388;2022-08-03T15:01:12;3.40;;;0.82;;
14518;SDS011;7346;50.846;4.388;2022-08-03T15:03:39;2.25;;;0.80;;
14518;SDS011;7346;50.846;4.388;2022-08-03T15:06:06;4.32;;;0.80;;
14518;SDS011;7346;50.846;4.388;2022-08-03T15:08:33;2.50;;;0.80;;
14518;SDS011;7346;50.846;4.388;2022-08-03T15:11:00;4.38;;;0.90;;
14518;SDS011;7346;50.846;4.388;2022-08-03T15:13:27;2.03;;;1.00;;
14518;SDS011;7346;50.846;4.388;2022-08-03T15:15:53;5.68;;;1.23;;
14518;SDS011;7346;50.846;4.388;2022-08-03T15:18:23;6.50;;;1.30;;
14518;SDS011;7346;50.846;4.388;2022-08-03T15:20:50;5.70;;;1.00;;
14518;SDS011;7346;50.846;4.388;2022-08-03T15:23:17;4.85;;;1.00;;